Time;durP1;ratioP1;P1;durP2;ratioP2;P2;SDS_P1;SDS_P2;PMS_P1;PMS_P2;Temp;Humidity;BMP_temperature;BMP_pressure;BME280_temperature;BME280_humidity;BME280_pressure;Samples;Min_cycle;Max_cycle;Signal;HPM_P1;HPM_P2
2022/07/06 00:01:54;;;;;;;;;;;25.00;95.40;;;;;;5050680;28;20273;-71
2022/07/06 00:04:19;;;;;;;;;;;25.00;95.60;;;;;;5032783;28;19913;-70
2022/07/06 00:06:45;;;;;;;;;;;25.00;95.70;;;;;;5050691;28;20003;-70
2022/07/06 00:09:10;;;;;;;;;;;24.90;95.90;;;;;;5050706;28;20418;-72
2022/07/06 00:11:36;;;;;;;;;;;25.00;96.20;;;;;;5033092;28;20028;-70
2022/07/06 00:14:02;;;;;;;;;;;24.90;96.40;;;;;;5050648;28;19909;-70
2022/07/06 00:16:28;;;;;;;;;;;25.00;96.60;;;;;;5050926;28;19921;-69
2022/07/06 00:18:53;;;;;;;;;;;25.00;96.80;;;;;;5032637;28;19913;-70
2022/07/06 00:21:19;;;;;;;;;;;24.90;97.10;;;;;;5051001;28;20399;-70
2022/07/06 00:23:44;;;;;;;;;;;24.90;97.40;;;;;;5050547;28;19952;-70
2022/07/06 00:26:10;;;;;;;;;;;24.90;97.60;;;;;;5050957;28;19916;-71
2022/07/06 00:28:36;;;;;;;;;;;24.90;98.00;;;;;;5050425;28;19946;-71
2022/07/06 00:31:01;;;;;;;;;;;24.90;98.20;;;;;;5065860;28;19932;-72
2022/07/06 00:33:27;;;;;;;;;;;24.90;98.50;;;;;;5050330;28;20060;-71
2022/07/06 00:35:52;;;;;;;;;;;24.90;99.00;;;;;;5050509;28;19923;-71
2022/07/06 00:38:18;;;;;;;;;;;24.80;99.50;;;;;;5050343;28;20312;-70
2022/07/06 00:40:43;;;;;;;;;;;24.80;99.90;;;;;;5050733;28;19967;-70
2022/07/06 00:43:09;;;;;;;;;;;24.80;99.90;;;;;;5050347;28;19915;-70
2022/07/06 00:45:34;;;;;;;;;;;24.70;99.90;;;;;;5032323;28;19920;-70
2022/07/06 00:48:00;;;;;;;;;;;24.80;99.90;;;;;;5050029;28;20361;-69
2022/07/06 00:50:28;;;;;;;;;;;24.80;99.90;;;;;;5050536;28;19920;-70
2022/07/06 00:53:01;;;;;;;;;;;24.70;99.90;;;;;;5050150;28;20373;-69
2022/07/06 00:55:28;;;;;;;;;;;24.70;99.90;;;;;;5050332;28;20387;-69
2022/07/06 00:57:54;;;;;;;;;;;24.60;99.90;;;;;;5050067;28;19947;-70
2022/07/06 01:00:21;;;;;;;;;;;24.70;99.90;;;;;;5050176;28;19964;-69
2022/07/06 01:02:47;;;;;;;;;;;24.60;99.90;;;;;;5049833;28;19913;-70
2022/07/06 01:05:13;;;;;;;;;;;24.50;99.90;;;;;;5049978;28;19923;-70
2022/07/06 01:07:41;;;;;;;;;;;24.60;99.90;;;;;;5049896;28;19999;-70
2022/07/06 01:10:07;;;;;;;;;;;24.60;99.90;;;;;;5053187;28;19994;-70
2022/07/06 01:12:34;;;;;;;;;;;24.60;99.90;;;;;;5054002;28;20467;-69
2022/07/06 01:15:00;;;;;;;;;;;24.60;99.90;;;;;;5053980;28;19920;-69
2022/07/06 01:17:25;;;;;;;;;;;24.60;99.90;;;;;;5054162;28;20410;-69
2022/07/06 01:19:51;;;;;;;;;;;24.60;99.90;;;;;;5069336;28;19920;-69
2022/07/06 01:22:16;;;;;;;;;;;24.60;99.90;;;;;;5054012;28;19913;-71
2022/07/06 01:24:42;;;;;;;;;;;24.70;99.90;;;;;;5054153;28;20420;-69
2022/07/06 01:27:07;;;;;;;;;;;24.70;99.90;;;;;;5053958;28;19959;-70
2022/07/06 01:29:33;;;;;;;;;;;24.70;99.90;;;;;;5035732;28;20027;-70
2022/07/06 01:31:59;;;;;;;;;;;24.70;99.90;;;;;;5035767;28;19908;-71
2022/07/06 01:34:25;;;;;;;;;;;24.70;99.90;;;;;;5053810;28;19966;-71
2022/07/06 01:36:50;;;;;;;;;;;24.80;99.90;;;;;;5053773;28;20012;-71
2022/07/06 01:39:16;;;;;;;;;;;24.80;99.90;;;;;;5053703;28;19917;-70
2022/07/06 01:41:41;;;;;;;;;;;24.80;99.90;;;;;;5053829;28;19913;-71
2022/07/06 01:44:07;;;;;;;;;;;24.80;99.90;;;;;;5053683;28;19908;-70
2022/07/06 01:46:32;;;;;;;;;;;24.90;99.90;;;;;;5035309;28;19917;-70
2022/07/06 01:48:58;;;;;;;;;;;24.90;99.90;;;;;;5035432;28;19923;-70
2022/07/06 01:51:24;;;;;;;;;;;24.90;99.90;;;;;;5053947;28;19962;-69
2022/07/06 01:53:50;;;;;;;;;;;24.80;99.90;;;;;;5053399;28;20284;-69
2022/07/06 01:56:15;;;;;;;;;;;24.80;99.90;;;;;;5053625;28;19917;-69
2022/07/06 01:58:41;;;;;;;;;;;24.70;99.90;;;;;;5053192;28;19932;-70
2022/07/06 02:01:11;;;;;;;;;;;24.70;99.90;;;;;;5035262;28;19924;-71
2022/07/06 02:03:37;;;;;;;;;;;24.60;99.90;;;;;;5053048;28;20007;-70
2022/07/06 02:06:04;;;;;;;;;;;24.50;99.90;;;;;;5053382;28;19983;-69
2022/07/06 02:08:29;;;;;;;;;;;24.40;99.90;;;;;;5034860;28;20395;-71
2022/07/06 02:10:55;;;;;;;;;;;24.30;99.90;;;;;;5035132;28;19970;-72
2022/07/06 02:13:20;;;;;;;;;;;24.40;99.90;;;;;;5052877;28;19917;-69
2022/07/06 02:15:46;;;;;;;;;;;24.40;99.90;;;;;;5052866;28;19917;-69
2022/07/06 02:18:11;;;;;;;;;;;24.40;99.90;;;;;;5052809;28;19913;-71
2022/07/06 02:20:37;;;;;;;;;;;24.50;99.90;;;;;;5051861;28;20277;-68
2022/07/06 02:23:02;;;;;;;;;;;24.40;99.90;;;;;;5052835;28;19964;-71
2022/07/06 02:25:28;;;;;;;;;;;24.40;99.90;;;;;;5018238;28;20422;-69
2022/07/06 02:27:53;;;;;;;;;;;24.40;99.90;;;;;;5052736;28;19920;-70
2022/07/06 02:30:19;;;;;;;;;;;24.30;99.90;;;;;;5052556;28;20336;-69
2022/07/06 02:32:44;;;;;;;;;;;24.20;99.90;;;;;;5052461;28;19923;-69
2022/07/06 02:35:10;;;;;;;;;;;24.20;99.90;;;;;;5034515;28;19912;-70
2022/07/06 02:37:35;;;;;;;;;;;24.10;99.90;;;;;;5031060;28;19929;-70
2022/07/06 02:40:01;;;;;;;;;;;24.10;99.90;;;;;;5032676;28;19917;-69
2022/07/06 02:42:26;;;;;;;;;;;24.10;99.90;;;;;;5032569;28;20254;-70
2022/07/06 02:44:53;;;;;;;;;;;24.10;99.90;;;;;;5032583;28;20135;-70
2022/07/06 02:47:18;;;;;;;;;;;24.20;99.90;;;;;;5032458;28;19963;-69
2022/07/06 02:49:44;;;;;;;;;;;24.10;99.90;;;;;;5032381;28;19921;-70
2022/07/06 02:52:09;;;;;;;;;;;24.10;99.90;;;;;;5032545;28;20000;-69
2022/07/06 02:54:35;;;;;;;;;;;24.10;99.90;;;;;;5032533;28;19932;-70
2022/07/06 02:57:00;;;;;;;;;;;24.10;99.90;;;;;;5032449;28;19917;-70
2022/07/06 02:59:26;;;;;;;;;;;24.10;99.90;;;;;;5032163;28;19959;-71
2022/07/06 03:01:51;;;;;;;;;;;24.10;99.90;;;;;;5032319;28;19913;-71
2022/07/06 03:04:17;;;;;;;;;;;24.10;99.90;;;;;;5030533;28;20020;-69
2022/07/06 03:06:42;;;;;;;;;;;24.10;99.90;;;;;;5032228;28;19999;-69
2022/07/06 03:09:08;;;;;;;;;;;24.00;99.90;;;;;;5032665;28;19973;-69
2022/07/06 03:11:35;;;;;;;;;;;24.10;99.90;;;;;;5032462;28;20381;-71
2022/07/06 03:14:02;;;;;;;;;;;24.00;99.90;;;;;;5032004;28;19920;-70
2022/07/06 03:16:28;;;;;;;;;;;24.00;99.90;;;;;;5032242;28;20383;-70
2022/07/06 03:18:53;;;;;;;;;;;24.00;99.90;;;;;;5031816;28;20007;-70
2022/07/06 03:21:19;;;;;;;;;;;24.10;99.90;;;;;;5032088;28;19921;-70
2022/07/06 03:23:44;;;;;;;;;;;24.00;99.90;;;;;;5031766;28;19966;-69
2022/07/06 03:26:10;;;;;;;;;;;24.10;99.90;;;;;;5031539;28;20042;-69
2022/07/06 03:28:35;;;;;;;;;;;24.10;99.90;;;;;;5031574;28;19924;-69
2022/07/06 03:31:01;;;;;;;;;;;24.10;99.90;;;;;;5031777;28;19920;-70
2022/07/06 03:33:26;;;;;;;;;;;24.10;99.90;;;;;;5031296;28;19920;-70
2022/07/06 03:35:52;;;;;;;;;;;24.20;99.90;;;;;;5031476;28;19948;-70
2022/07/06 03:38:17;;;;;;;;;;;24.30;99.90;;;;;;5043807;28;19960;-69
2022/07/06 03:40:43;;;;;;;;;;;24.30;99.90;;;;;;5066527;28;19964;-68
2022/07/06 03:43:08;;;;;;;;;;;24.30;99.90;;;;;;5051465;28;19909;-70
2022/07/06 03:45:34;;;;;;;;;;;24.40;99.90;;;;;;5051576;28;19920;-69
2022/07/06 03:47:59;;;;;;;;;;;24.40;99.90;;;;;;5051352;28;20269;-69
2022/07/06 03:50:25;;;;;;;;;;;24.50;99.90;;;;;;5051295;28;20027;-70
2022/07/06 03:52:50;;;;;;;;;;;24.50;99.90;;;;;;5051233;28;20360;-70
2022/07/06 03:55:16;;;;;;;;;;;24.50;99.90;;;;;;5050894;28;19921;-69
2022/07/06 03:57:41;;;;;;;;;;;24.60;99.90;;;;;;5051161;28;20352;-72
2022/07/06 04:00:07;;;;;;;;;;;24.60;99.90;;;;;;5051088;28;19916;-70
2022/07/06 04:02:33;;;;;;;;;;;24.70;99.90;;;;;;5050898;28;20221;-70
2022/07/06 04:04:58;;;;;;;;;;;24.80;99.90;;;;;;5051119;28;20011;-70
2022/07/06 04:07:25;;;;;;;;;;;24.80;99.90;;;;;;5032917;28;20376;-69
2022/07/06 04:09:50;;;;;;;;;;;24.90;99.90;;;;;;5050818;28;19921;-69
2022/07/06 04:12:16;;;;;;;;;;;25.00;99.90;;;;;;5050664;28;20406;-68
2022/07/06 04:14:42;;;;;;;;;;;25.00;99.90;;;;;;5032842;28;19921;-69
2022/07/06 04:19:51;;;;;;;;;;;25.20;99.50;;;;;;5050875;28;19923;-69
2022/07/06 04:22:17;;;;;;;;;;;25.20;98.90;;;;;;5050558;28;20007;-69
2022/07/06 04:24:42;;;;;;;;;;;25.20;98.70;;;;;;5050630;28;19964;-71
2022/07/06 04:27:08;;;;;;;;;;;25.20;98.40;;;;;;5050516;28;20365;-69
2022/07/06 04:29:33;;;;;;;;;;;25.20;98.20;;;;;;5050460;28;19916;-70
2022/07/06 04:31:59;;;;;;;;;;;25.20;98.00;;;;;;5050698;28;20007;-69
2022/07/06 04:34:24;;;;;;;;;;;25.30;98.40;;;;;;5050469;28;19912;-69
2022/07/06 04:36:50;;;;;;;;;;;25.20;98.50;;;;;;5050194;28;19916;-69
2022/07/06 04:39:15;;;;;;;;;;;25.40;98.50;;;;;;5065868;28;20388;-69
2022/07/06 04:41:41;;;;;;;;;;;25.30;98.50;;;;;;5050790;28;19924;-69
2022/07/06 04:44:06;;;;;;;;;;;25.30;98.10;;;;;;5049861;28;20019;-70
2022/07/06 04:46:32;;;;;;;;;;;25.30;97.90;;;;;;5050778;28;20287;-70
2022/07/06 04:48:57;;;;;;;;;;;25.40;98.00;;;;;;5050240;28;19917;-70
2022/07/06 04:51:23;;;;;;;;;;;25.50;98.10;;;;;;5050717;28;20006;-71
2022/07/06 04:53:48;;;;;;;;;;;25.50;97.90;;;;;;5050177;28;20374;-72
2022/07/06 04:56:13;;;;;;;;;;;25.60;98.00;;;;;;5050533;28;19924;-70
2022/07/06 04:58:39;;;;;;;;;;;25.70;97.90;;;;;;5050190;28;19909;-70
2022/07/06 05:01:04;;;;;;;;;;;25.80;97.40;;;;;;5050377;28;20387;-70
2022/07/06 05:03:30;;;;;;;;;;;25.70;97.30;;;;;;5050447;28;19998;-70
2022/07/06 05:05:55;;;;;;;;;;;25.80;97.70;;;;;;5050529;28;20012;-70
2022/07/06 05:08:21;;;;;;;;;;;25.80;97.20;;;;;;5050091;28;19909;-71
2022/07/06 05:10:48;;;;;;;;;;;25.80;97.50;;;;;;5032248;28;19927;-72
2022/07/06 05:13:13;;;;;;;;;;;25.80;97.60;;;;;;5065459;28;19909;-70
2022/07/06 05:15:39;;;;;;;;;;;25.80;97.50;;;;;;5050363;28;20420;-70
2022/07/06 05:18:04;;;;;;;;;;;25.90;97.40;;;;;;5031988;28;19916;-71
2022/07/06 05:20:30;;;;;;;;;;;26.00;97.30;;;;;;5050370;28;20414;-71
2022/07/06 05:22:55;;;;;;;;;;;25.90;97.50;;;;;;5032243;28;20324;-71
2022/07/06 05:25:21;;;;;;;;;;;25.90;97.50;;;;;;5031884;28;19921;-70
2022/07/06 05:27:46;;;;;;;;;;;26.00;97.50;;;;;;5031890;28;19912;-70
2022/07/06 05:30:12;;;;;;;;;;;26.00;97.20;;;;;;5050344;28;19920;-71
2022/07/06 05:32:37;;;;;;;;;;;26.10;97.30;;;;;;5049934;28;19913;-71
2022/07/06 05:35:03;;;;;;;;;;;26.30;97.00;;;;;;5031829;28;19917;-70
2022/07/06 05:37:29;;;;;;;;;;;26.40;96.90;;;;;;5031754;28;19948;-70
2022/07/06 05:39:54;;;;;;;;;;;26.40;97.00;;;;;;5049984;28;19916;-71
2022/07/06 05:42:19;;;;;;;;;;;26.60;96.60;;;;;;5049891;28;19909;-71
2022/07/06 05:44:45;;;;;;;;;;;26.70;97.00;;;;;;5049798;28;19917;-71
2022/07/06 05:50:11;;;;;;;;;;;26.80;97.10;;;;;;5027502;28;19992;-72
2022/07/06 05:52:37;;;;;;;;;;;26.70;97.00;;;;;;5031800;28;20258;-70
2022/07/06 05:55:03;;;;;;;;;;;26.70;97.00;;;;;;5051086;28;19924;-71
2022/07/06 05:57:28;;;;;;;;;;;26.80;97.00;;;;;;5053328;28;19993;-70
2022/07/06 05:59:54;;;;;;;;;;;27.00;97.50;;;;;;5053611;28;20069;-70
2022/07/06 06:02:19;;;;;;;;;;;27.20;97.20;;;;;;5053349;28;19936;-71
2022/07/06 06:04:45;;;;;;;;;;;27.30;97.30;;;;;;5053713;28;19916;-71
2022/07/06 06:07:10;;;;;;;;;;;27.30;97.50;;;;;;5053255;28;20300;-72
2022/07/06 06:09:36;;;;;;;;;;;27.40;97.00;;;;;;5053420;28;20016;-70
2022/07/06 06:12:01;;;;;;;;;;;27.40;96.70;;;;;;5053064;28;19992;-70
2022/07/06 06:14:27;;;;;;;;;;;27.40;97.00;;;;;;5053181;28;19919;-70
2022/07/06 06:16:52;;;;;;;;;;;27.50;96.40;;;;;;5053156;28;20062;-71
2022/07/06 06:19:18;;;;;;;;;;;27.40;96.30;;;;;;5052878;28;20244;-70
2022/07/06 06:21:43;;;;;;;;;;;27.40;96.60;;;;;;5052960;28;19916;-71
2022/07/06 06:24:09;;;;;;;;;;;27.50;96.60;;;;;;5052889;28;20297;-71
2022/07/06 06:26:34;;;;;;;;;;;27.50;96.30;;;;;;5053330;28;19973;-70
2022/07/06 06:29:00;;;;;;;;;;;27.60;95.90;;;;;;5034861;28;20107;-70
2022/07/06 06:31:25;;;;;;;;;;;27.70;96.00;;;;;;5052590;28;20369;-70
2022/07/06 06:33:52;;;;;;;;;;;27.80;96.10;;;;;;5052325;28;19908;-65
2022/07/06 06:36:18;;;;;;;;;;;28.00;94.90;;;;;;5034809;28;19917;-65
2022/07/06 06:38:43;;;;;;;;;;;28.10;95.00;;;;;;5052265;28;19932;-65
2022/07/06 06:41:09;;;;;;;;;;;28.10;94.90;;;;;;5052796;28;20426;-64
2022/07/06 06:43:34;;;;;;;;;;;28.10;94.90;;;;;;5052278;28;20364;-65
2022/07/06 06:46:00;;;;;;;;;;;28.10;94.80;;;;;;5034546;28;19924;-65
2022/07/06 06:48:25;;;;;;;;;;;28.10;95.00;;;;;;5052681;28;19909;-66
2022/07/06 06:50:51;;;;;;;;;;;28.10;94.90;;;;;;5052636;28;19997;-64
2022/07/06 06:53:16;;;;;;;;;;;28.10;95.20;;;;;;5052178;28;19919;-65
2022/07/06 06:55:42;;;;;;;;;;;28.20;94.70;;;;;;5052418;28;19960;-65
2022/07/06 06:58:07;;;;;;;;;;;28.30;93.60;;;;;;5051707;28;19908;-65
2022/07/06 07:00:33;;;;;;;;;;;28.40;93.70;;;;;;5052510;28;20382;-65
2022/07/06 07:02:59;;;;;;;;;;;28.50;93.20;;;;;;5051954;28;19916;-65
2022/07/06 07:05:24;;;;;;;;;;;28.60;93.10;;;;;;5052380;28;19920;-65
2022/07/06 07:07:50;;;;;;;;;;;28.70;93.00;;;;;;5051825;28;19908;-65
2022/07/06 07:10:15;;;;;;;;;;;28.80;93.70;;;;;;5052085;28;19950;-66
2022/07/06 07:12:44;;;;;;;;;;;29.00;93.80;;;;;;5051711;28;20270;-64
2022/07/06 07:15:10;;;;;;;;;;;29.00;94.00;;;;;;5051496;28;19916;-65
2022/07/06 07:17:36;;;;;;;;;;;29.10;93.50;;;;;;5051941;28;20075;-63
2022/07/06 07:20:01;;;;;;;;;;;29.10;93.80;;;;;;5051986;28;20383;-67
2022/07/06 07:22:27;;;;;;;;;;;29.10;93.70;;;;;;5040650;28;20531;-67
2022/07/06 07:24:52;;;;;;;;;;;29.20;93.70;;;;;;5061060;28;19982;-67
2022/07/06 07:27:18;;;;;;;;;;;29.40;92.70;;;;;;5055485;28;19935;-67
2022/07/06 07:29:43;;;;;;;;;;;29.50;92.40;;;;;;5064416;28;19921;-67
2022/07/06 07:32:09;;;;;;;;;;;29.60;92.20;;;;;;5058145;28;19947;-67
2022/07/06 07:34:34;;;;;;;;;;;29.60;92.30;;;;;;5051241;28;20401;-68
2022/07/06 07:37:00;;;;;;;;;;;29.70;92.00;;;;;;5066999;28;20383;-68
2022/07/06 07:39:25;;;;;;;;;;;29.70;91.60;;;;;;5069087;28;19908;-68
2022/07/06 07:41:51;;;;;;;;;;;29.70;91.60;;;;;;5065752;28;19909;-67
2022/07/06 07:44:16;;;;;;;;;;;29.70;91.90;;;;;;5070636;28;19924;-67
2022/07/06 07:46:42;;;;;;;;;;;29.80;92.00;;;;;;5070171;28;20004;-66
2022/07/06 07:49:07;;;;;;;;;;;30.00;91.40;;;;;;5068025;28;19916;-67
2022/07/06 07:51:33;;;;;;;;;;;30.10;91.30;;;;;;5067997;28;19917;-66
2022/07/06 07:53:58;;;;;;;;;;;30.20;91.10;;;;;;5068363;28;20336;-66
2022/07/06 07:56:24;;;;;;;;;;;30.30;91.00;;;;;;5070922;28;19921;-66
2022/07/06 07:58:49;;;;;;;;;;;30.40;90.90;;;;;;5069395;28;19916;-66
2022/07/06 08:01:15;;;;;;;;;;;30.50;91.10;;;;;;5071027;28;19916;-66
2022/07/06 08:03:40;;;;;;;;;;;30.70;90.50;;;;;;5070513;28;19909;-65
2022/07/06 08:06:06;;;;;;;;;;;30.80;90.30;;;;;;5051757;28;19916;-66
2022/07/06 08:08:31;;;;;;;;;;;30.60;90.50;;;;;;5070390;28;20015;-66
2022/07/06 08:10:57;;;;;;;;;;;30.70;90.60;;;;;;5070509;28;19974;-66
2022/07/06 08:13:22;;;;;;;;;;;30.80;90.10;;;;;;5069005;28;19912;-67
2022/07/06 08:15:48;;;;;;;;;;;30.90;90.20;;;;;;5051711;28;19996;-67
2022/07/06 08:18:13;;;;;;;;;;;31.00;90.00;;;;;;5069526;28;19956;-67
2022/07/06 08:20:39;;;;;;;;;;;31.10;88.10;;;;;;5070527;28;20362;-68
2022/07/06 08:23:04;;;;;;;;;;;31.20;88.60;;;;;;5069636;28;19982;-67
2022/07/06 08:25:30;;;;;;;;;;;31.20;88.00;;;;;;5070090;28;19916;-67
2022/07/06 08:27:56;;;;;;;;;;;31.30;87.90;;;;;;5070385;28;19939;-67
2022/07/06 08:30:21;;;;;;;;;;;31.40;87.80;;;;;;5069859;28;20133;-67
2022/07/06 08:32:47;;;;;;;;;;;31.60;86.60;;;;;;5069936;28;19919;-67
2022/07/06 08:35:13;;;;;;;;;;;31.50;87.20;;;;;;5069474;28;20398;-67
2022/07/06 08:37:38;;;;;;;;;;;31.40;87.90;;;;;;5070096;28;20090;-67
2022/07/06 08:40:04;;;;;;;;;;;31.50;88.00;;;;;;5070105;28;19916;-67
2022/07/06 08:42:31;;;;;;;;;;;31.80;85.90;;;;;;5069874;28;19913;-66
2022/07/06 08:45:01;;;;;;;;;;;31.90;85.70;;;;;;5069787;28;19927;-66
2022/07/06 08:47:27;;;;;;;;;;;31.90;85.80;;;;;;5069879;28;19974;-67
2022/07/06 08:49:53;;;;;;;;;;;32.20;84.10;;;;;;5069758;28;19943;-67
2022/07/06 08:52:19;;;;;;;;;;;32.50;84.50;;;;;;5069647;28;19948;-67
2022/07/06 08:54:44;;;;;;;;;;;32.60;81.90;;;;;;5069631;28;20328;-67
2022/07/06 08:57:10;;;;;;;;;;;32.40;81.70;;;;;;5069625;28;19997;-67
2022/07/06 08:59:35;;;;;;;;;;;31.90;82.60;;;;;;5069659;28;20272;-67
2022/07/06 09:02:02;;;;;;;;;;;31.50;83.90;;;;;;5069738;28;19912;-68
2022/07/06 09:04:28;;;;;;;;;;;31.90;83.40;;;;;;5069405;28;19916;-67
2022/07/06 09:06:53;;;;;;;;;;;32.50;82.70;;;;;;5069823;28;19912;-67
2022/07/06 09:09:21;;;;;;;;;;;33.10;80.30;;;;;;5051394;28;19912;-67
2022/07/06 09:11:47;;;;;;;;;;;33.50;78.80;;;;;;5069773;28;20202;-64
2022/07/06 09:14:13;;;;;;;;;;;33.70;78.70;;;;;;5070222;28;20360;-67
2022/07/06 09:16:38;;;;;;;;;;;33.50;77.80;;;;;;5069715;28;19916;-66
2022/07/06 09:19:04;;;;;;;;;;;33.50;77.20;;;;;;5069696;28;19935;-66
2022/07/06 09:21:31;;;;;;;;;;;33.60;77.40;;;;;;5069644;28;20019;-67
2022/07/06 09:24:00;;;;;;;;;;;33.60;75.70;;;;;;5069944;28;19920;-67
2022/07/06 09:26:26;;;;;;;;;;;33.70;76.50;;;;;;5068922;28;19943;-67
2022/07/06 09:28:51;;;;;;;;;;;34.00;74.60;;;;;;5069510;28;20344;-66
2022/07/06 09:31:17;;;;;;;;;;;33.90;74.30;;;;;;5072948;28;19928;-66
2022/07/06 09:34:02;;;;;;;;;;;33.70;74.60;;;;;;5073466;28;20376;-67
2022/07/06 09:36:38;;;;;;;;;;;33.30;75.60;;;;;;5055037;28;20391;-67
2022/07/06 09:39:15;;;;;;;;;;;33.50;74.80;;;;;;5073900;28;19921;-66
2022/07/06 09:41:41;;;;;;;;;;;33.70;73.40;;;;;;5073306;28;20286;-66
2022/07/06 09:44:06;;;;;;;;;;;33.80;73.50;;;;;;5073442;28;20336;-67
2022/07/06 09:46:41;;;;;;;;;;;33.60;73.20;;;;;;5070403;28;19916;-70
2022/07/06 09:49:08;;;;;;;;;;;33.50;73.40;;;;;;5061626;28;19983;-67
2022/07/06 09:51:37;;;;;;;;;;;33.10;74.20;;;;;;5067078;28;19966;-68
2022/07/06 09:54:07;;;;;;;;;;;33.00;73.60;;;;;;5068076;28;19940;-68
2022/07/06 09:56:37;;;;;;;;;;;33.10;73.60;;;;;;5064419;28;19916;-68
2022/07/06 09:59:12;;;;;;;;;;;33.30;74.10;;;;;;5034618;28;19913;-69
2022/07/06 10:01:38;;;;;;;;;;;33.70;73.60;;;;;;5065036;28;20267;-69
2022/07/06 10:04:05;;;;;;;;;;;33.70;72.80;;;;;;5072425;28;19908;-69
2022/07/06 10:06:31;;;;;;;;;;;33.50;73.30;;;;;;5069740;28;19921;-68
2022/07/06 10:08:57;;;;;;;;;;;33.40;73.10;;;;;;5054158;28;19917;-68
2022/07/06 10:11:23;;;;;;;;;;;33.10;73.30;;;;;;5072980;28;19923;-68
2022/07/06 10:13:49;;;;;;;;;;;33.20;74.30;;;;;;5073164;28;19913;-68
2022/07/06 10:16:15;;;;;;;;;;;33.40;72.70;;;;;;5073021;28;19967;-68
2022/07/06 10:18:41;;;;;;;;;;;33.40;72.10;;;;;;5072957;28;20414;-68
2022/07/06 10:21:06;;;;;;;;;;;33.40;71.70;;;;;;5072966;28;19920;-66
2022/07/06 10:23:34;;;;;;;;;;;33.20;72.20;;;;;;5058578;28;19974;-67
2022/07/06 10:26:00;;;;;;;;;;;33.20;72.40;;;;;;5059719;28;20283;-66
2022/07/06 10:28:26;;;;;;;;;;;33.40;70.40;;;;;;5072629;28;19912;-67
2022/07/06 10:30:52;;;;;;;;;;;33.20;69.70;;;;;;5063996;28;19916;-67
2022/07/06 10:33:17;;;;;;;;;;;33.60;71.30;;;;;;5052487;28;19924;-67
2022/07/06 10:35:43;;;;;;;;;;;33.70;70.70;;;;;;5056936;28;19917;-66
2022/07/06 10:38:10;;;;;;;;;;;33.70;70.30;;;;;;5072010;28;19920;-65
2022/07/06 10:43:23;;;;;;;;;;;34.30;69.90;;;;;;5071105;28;21001;-67
2022/07/06 10:45:48;;;;;;;;;;;34.40;69.50;;;;;;5072491;28;20429;-67
2022/07/06 10:48:17;;;;;;;;;;;34.20;69.00;;;;;;5071871;28;19913;-66
2022/07/06 10:50:45;;;;;;;;;;;33.90;68.10;;;;;;5071756;28;19997;-67
2022/07/06 10:53:12;;;;;;;;;;;33.80;69.50;;;;;;5071569;28;20006;-67
2022/07/06 10:55:38;;;;;;;;;;;33.70;69.90;;;;;;5071913;28;20314;-67
2022/07/06 10:58:04;;;;;;;;;;;33.50;70.60;;;;;;5036073;28;19913;-67
2022/07/06 11:00:51;;;;;;;;;;;33.20;71.40;;;;;;5055142;28;19912;-67
2022/07/06 11:03:30;;;;;;;;;;;33.30;71.50;;;;;;5071824;28;20471;-67
2022/07/06 11:06:15;;;;;;;;;;;33.90;70.90;;;;;;5071760;28;19982;-67
2022/07/06 11:08:49;;;;;;;;;;;34.40;70.80;;;;;;5071879;28;20001;-67
2022/07/06 11:11:33;;;;;;;;;;;34.80;69.60;;;;;;5071331;28;20371;-67
2022/07/06 11:14:06;;;;;;;;;;;35.30;69.00;;;;;;5071689;28;20336;-68
2022/07/06 11:16:34;;;;;;;;;;;35.30;67.40;;;;;;5070566;28;19966;-67
2022/07/06 11:19:02;;;;;;;;;;;35.20;66.90;;;;;;5071318;28;20390;-67
2022/07/06 11:21:35;;;;;;;;;;;34.60;67.90;;;;;;5071271;28;19921;-67
2022/07/06 11:24:01;;;;;;;;;;;34.40;68.70;;;;;;5071431;28;19937;-67
2022/07/06 11:26:27;;;;;;;;;;;34.30;68.30;;;;;;5070722;28;20007;-67
2022/07/06 11:28:52;;;;;;;;;;;34.40;68.10;;;;;;5058369;28;20297;-67
2022/07/06 11:31:18;;;;;;;;;;;34.60;68.20;;;;;;5070383;28;19913;-67
2022/07/06 11:33:47;;;;;;;;;;;34.80;67.60;;;;;;5069972;28;19916;-67
2022/07/06 11:36:14;;;;;;;;;;;34.70;67.40;;;;;;5069982;28;19919;-67
2022/07/06 11:38:40;;;;;;;;;;;34.60;67.70;;;;;;5070217;28;19935;-67
2022/07/06 11:41:06;;;;;;;;;;;34.40;68.40;;;;;;5070975;28;20283;-67
2022/07/06 11:43:31;;;;;;;;;;;34.40;68.90;;;;;;5070632;28;19916;-67
2022/07/06 11:45:57;;;;;;;;;;;34.80;68.60;;;;;;5067586;28;20368;-67
2022/07/06 11:48:22;;;;;;;;;;;34.70;68.10;;;;;;5066713;28;19952;-67
2022/07/06 11:51:00;;;;;;;;;;;34.40;67.10;;;;;;5059029;28;19920;-67
2022/07/06 11:53:26;;;;;;;;;;;34.10;67.80;;;;;;5070350;28;19917;-66
2022/07/06 11:55:52;;;;;;;;;;;33.90;67.90;;;;;;5043403;28;19977;-66
2022/07/06 11:58:20;;;;;;;;;;;33.60;68.00;;;;;;5058968;28;19921;-67
2022/07/06 12:01:02;;;;;;;;;;;33.70;68.30;;;;;;5059792;28;20367;-66
2022/07/06 12:03:27;;;;;;;;;;;33.90;67.70;;;;;;5050297;28;20241;-66
2022/07/06 12:05:53;;;;;;;;;;;33.80;68.40;;;;;;5057330;28;19916;-67
2022/07/06 12:08:18;;;;;;;;;;;33.50;69.00;;;;;;5070661;28;19959;-66
2022/07/06 12:10:44;;;;;;;;;;;33.40;69.00;;;;;;5071243;28;19920;-67
2022/07/06 12:13:09;;;;;;;;;;;33.30;69.00;;;;;;5070921;28;19913;-67
2022/07/06 12:15:35;;;;;;;;;;;33.30;69.20;;;;;;5071003;28;19952;-66
2022/07/06 12:18:01;;;;;;;;;;;33.30;69.10;;;;;;5070809;28;20312;-67
2022/07/06 12:20:26;;;;;;;;;;;33.20;69.10;;;;;;5071176;28;19913;-67
2022/07/06 12:23:00;;;;;;;;;;;33.10;69.40;;;;;;5071127;28;20296;-67
2022/07/06 12:25:30;;;;;;;;;;;33.10;69.20;;;;;;5070162;28;20003;-67
2022/07/06 12:27:55;;;;;;;;;;;33.10;69.50;;;;;;5070962;28;19917;-67
2022/07/06 12:30:21;;;;;;;;;;;32.80;70.00;;;;;;5070844;28;20363;-66
2022/07/06 12:32:46;;;;;;;;;;;32.90;70.50;;;;;;5070697;28;19912;-67
2022/07/06 12:35:12;;;;;;;;;;;32.90;70.40;;;;;;5052786;28;20233;-67
2022/07/06 12:37:38;;;;;;;;;;;33.00;70.20;;;;;;5070581;28;19928;-67
2022/07/06 12:40:14;;;;;;;;;;;33.10;70.60;;;;;;5070339;28;20486;-67
2022/07/06 12:42:46;;;;;;;;;;;33.10;69.90;;;;;;5070363;28;20761;-66
2022/07/06 12:45:12;;;;;;;;;;;32.80;70.40;;;;;;5070515;28;19909;-63
2022/07/06 12:47:42;;;;;;;;;;;32.50;70.60;;;;;;5069936;28;19928;-65
2022/07/06 12:50:10;;;;;;;;;;;32.50;70.80;;;;;;5069345;28;20011;-64
2022/07/06 12:52:36;;;;;;;;;;;32.40;70.90;;;;;;5070200;28;19963;-64
2022/07/06 12:55:02;;;;;;;;;;;32.40;71.30;;;;;;5070139;28;20290;-64
2022/07/06 12:57:41;;;;;;;;;;;32.30;71.60;;;;;;5057140;28;19937;-65
2022/07/06 13:00:07;;;;;;;;;;;32.20;73.00;;;;;;5049949;28;19913;-65
2022/07/06 13:02:36;;;;;;;;;;;31.80;74.40;;;;;;5069703;28;19929;-65
2022/07/06 13:05:02;;;;;;;;;;;31.40;75.60;;;;;;5043900;28;20428;-65
2022/07/06 13:07:31;;;;;;;;;;;31.00;76.60;;;;;;5059854;28;19921;-65
2022/07/06 13:09:57;;;;;;;;;;;30.70;77.40;;;;;;5068390;28;20023;-64
2022/07/06 13:12:24;;;;;;;;;;;30.60;78.20;;;;;;5062774;28;19959;-65
2022/07/06 13:14:50;;;;;;;;;;;30.50;78.10;;;;;;5057709;28;19970;-66
2022/07/06 13:17:15;;;;;;;;;;;30.40;78.40;;;;;;5059323;28;19917;-68
2022/07/06 13:19:41;;;;;;;;;;;30.20;78.60;;;;;;5053051;28;20019;-65
2022/07/06 13:22:06;;;;;;;;;;;29.90;79.40;;;;;;5066247;28;19920;-65
2022/07/06 13:24:32;;;;;;;;;;;29.60;80.30;;;;;;5065119;28;19916;-66
2022/07/06 13:26:58;;;;;;;;;;;29.50;81.30;;;;;;5062022;28;19920;-67
2022/07/06 13:29:24;;;;;;;;;;;29.30;84.20;;;;;;5069405;28;19916;-67
2022/07/06 13:31:49;;;;;;;;;;;28.90;86.60;;;;;;5064214;28;19942;-67
2022/07/06 13:34:15;;;;;;;;;;;28.50;90.00;;;;;;5064185;28;19919;-67
2022/07/06 13:36:41;;;;;;;;;;;27.90;91.40;;;;;;5054289;28;19913;-67
2022/07/06 13:39:06;;;;;;;;;;;27.50;92.60;;;;;;5051851;28;19929;-68
2022/07/06 13:41:32;;;;;;;;;;;27.20;94.00;;;;;;5053429;28;19939;-67
2022/07/06 13:44:00;;;;;;;;;;;27.00;95.20;;;;;;5052420;28;19971;-67
2022/07/06 13:46:26;;;;;;;;;;;26.70;98.50;;;;;;5060570;28;19935;-67
2022/07/06 13:48:52;;;;;;;;;;;26.30;99.90;;;;;;5063837;28;19925;-67
2022/07/06 13:51:18;;;;;;;;;;;25.90;99.90;;;;;;5035419;28;19928;-67
2022/07/06 13:53:43;;;;;;;;;;;25.70;99.90;;;;;;5061180;28;19952;-68
2022/07/06 13:56:09;;;;;;;;;;;25.60;99.90;;;;;;5062493;28;20464;-67
2022/07/06 13:58:34;;;;;;;;;;;25.50;99.90;;;;;;5058623;28;19986;-68
2022/07/06 14:01:00;;;;;;;;;;;25.50;99.90;;;;;;5057112;28;19920;-66
2022/07/06 14:03:29;;;;;;;;;;;25.50;99.90;;;;;;5059360;28;20400;-65
2022/07/06 14:06:04;;;;;;;;;;;25.40;99.90;;;;;;5055500;28;20290;-65
2022/07/06 14:08:29;;;;;;;;;;;25.30;99.90;;;;;;5049053;28;19920;-66
2022/07/06 14:10:56;;;;;;;;;;;25.20;99.90;;;;;;5053010;28;20280;-66
2022/07/06 14:13:21;;;;;;;;;;;25.10;99.90;;;;;;5060463;28;19917;-66
2022/07/06 14:15:47;;;;;;;;;;;24.90;99.90;;;;;;5057015;28;19928;-65
2022/07/06 14:18:17;;;;;;;;;;;24.80;99.90;;;;;;5051733;28;19970;-65
2022/07/06 14:20:43;;;;;;;;;;;24.80;99.90;;;;;;5040603;28;19913;-65